sensor_id;sensor_type;location;lat;lon;timestamp;P1;durP1;ratioP1;P2;durP2;ratioP2
14358;SDS011;7263;49.418;11.064;2024-03-06T00:02:04;13.40;;;9.80;;
14358;SDS011;7263;49.418;11.064;2024-03-06T00:04:37;12.87;;;9.50;;
14358;SDS011;7263;49.418;11.064;2024-03-06T00:07:04;12.07;;;9.20;;
14358;SDS011;7263;49.418;11.064;2024-03-06T00:09:31;12.43;;;10.07;;
14358;SDS011;7263;49.418;11.064;2024-03-06T00:12:04;12.10;;;9.40;;
14358;SDS011;7263;49.418;11.064;2024-03-06T00:14:34;10.37;;;8.73;;
14358;SDS011;7263;49.418;11.064;2024-03-06T00:17:02;11.40;;;9.80;;
14358;SDS011;7263;49.418;11.064;2024-03-06T00:19:29;11.47;;;9.43;;
14358;SDS011;7263;49.418;11.064;2024-03-06T00:22:02;11.00;;;9.53;;
14358;SDS011;7263;49.418;11.064;2024-03-06T00:24:33;11.60;;;8.97;;
14358;SDS011;7263;49.418;11.064;2024-03-06T00:27:05;12.53;;;10.17;;
14358;SDS011;7263;49.418;11.064;2024-03-06T00:29:40;11.03;;;9.00;;
14358;SDS011;7263;49.418;11.064;2024-03-06T00:32:09;11.83;;;9.10;;
14358;SDS011;7263;49.418;11.064;2024-03-06T00:34:36;12.57;;;9.23;;
14358;SDS011;7263;49.418;11.064;2024-03-06T00:37:04;11.13;;;9.63;;
14358;SDS011;7263;49.418;11.064;2024-03-06T00:39:49;11.67;;;9.17;;
14358;SDS011;7263;49.418;11.064;2024-03-06T00:42:19;13.13;;;8.90;;
14358;SDS011;7263;49.418;11.064;2024-03-06T00:44:52;10.53;;;8.87;;
14358;SDS011;7263;49.418;11.064;2024-03-06T00:47:19;12.17;;;9.90;;
14358;SDS011;7263;49.418;11.064;2024-03-06T00:49:46;13.43;;;10.20;;
14358;SDS011;7263;49.418;11.064;2024-03-06T00:52:22;11.10;;;9.10;;
14358;SDS011;7263;49.418;11.064;2024-03-06T00:54:48;13.03;;;9.50;;
14358;SDS011;7263;49.418;11.064;2024-03-06T00:57:32;12.23;;;9.70;;
14358;SDS011;7263;49.418;11.064;2024-03-06T01:00:16;11.37;;;9.50;;
14358;SDS011;7263;49.418;11.064;2024-03-06T01:02:44;12.87;;;10.37;;
14358;SDS011;7263;49.418;11.064;2024-03-06T01:05:16;12.23;;;10.27;;
14358;SDS011;7263;49.418;11.064;2024-03-06T01:07:44;12.80;;;10.20;;
14358;SDS011;7263;49.418;11.064;2024-03-06T01:10:11;14.03;;;10.67;;
14358;SDS011;7263;49.418;11.064;2024-03-06T01:12:38;11.03;;;9.70;;
14358;SDS011;7263;49.418;11.064;2024-03-06T01:15:16;12.53;;;10.70;;
14358;SDS011;7263;49.418;11.064;2024-03-06T01:17:42;12.20;;;10.73;;
14358;SDS011;7263;49.418;11.064;2024-03-06T01:20:10;11.77;;;9.87;;
14358;SDS011;7263;49.418;11.064;2024-03-06T01:22:42;12.57;;;10.63;;
14358;SDS011;7263;49.418;11.064;2024-03-06T01:25:12;14.40;;;11.07;;
14358;SDS011;7263;49.418;11.064;2024-03-06T01:27:40;12.77;;;10.63;;
14358;SDS011;7263;49.418;11.064;2024-03-06T01:30:10;13.07;;;11.23;;
14358;SDS011;7263;49.418;11.064;2024-03-06T01:32:37;13.50;;;11.33;;
14358;SDS011;7263;49.418;11.064;2024-03-06T01:35:07;12.90;;;10.70;;
14358;SDS011;7263;49.418;11.064;2024-03-06T01:37:34;13.17;;;10.10;;
14358;SDS011;7263;49.418;11.064;2024-03-06T01:40:01;12.37;;;10.37;;
14358;SDS011;7263;49.418;11.064;2024-03-06T01:42:30;16.13;;;11.13;;
14358;SDS011;7263;49.418;11.064;2024-03-06T01:45:00;15.00;;;10.87;;
14358;SDS011;7263;49.418;11.064;2024-03-06T01:47:35;14.87;;;11.50;;
14358;SDS011;7263;49.418;11.064;2024-03-06T01:50:02;13.70;;;11.57;;
14358;SDS011;7263;49.418;11.064;2024-03-06T01:52:38;14.80;;;11.00;;
14358;SDS011;7263;49.418;11.064;2024-03-06T01:55:09;15.60;;;11.30;;
14358;SDS011;7263;49.418;11.064;2024-03-06T01:57:37;14.97;;;12.10;;
14358;SDS011;7263;49.418;11.064;2024-03-06T02:00:06;16.73;;;12.03;;
14358;SDS011;7263;49.418;11.064;2024-03-06T02:02:39;14.63;;;12.03;;
14358;SDS011;7263;49.418;11.064;2024-03-06T02:05:08;14.73;;;11.53;;
14358;SDS011;7263;49.418;11.064;2024-03-06T02:07:45;13.87;;;11.13;;
14358;SDS011;7263;49.418;11.064;2024-03-06T02:10:13;15.03;;;11.83;;
14358;SDS011;7263;49.418;11.064;2024-03-06T02:12:44;14.60;;;12.10;;
14358;SDS011;7263;49.418;11.064;2024-03-06T02:15:16;14.97;;;11.63;;
14358;SDS011;7263;49.418;11.064;2024-03-06T02:18:02;16.13;;;12.90;;
14358;SDS011;7263;49.418;11.064;2024-03-06T02:20:37;17.77;;;13.60;;
14358;SDS011;7263;49.418;11.064;2024-03-06T02:23:05;15.73;;;12.93;;
14358;SDS011;7263;49.418;11.064;2024-03-06T02:25:34;17.63;;;13.90;;
14358;SDS011;7263;49.418;11.064;2024-03-06T02:28:03;18.47;;;13.10;;
14358;SDS011;7263;49.418;11.064;2024-03-06T02:30:31;18.27;;;13.93;;
14358;SDS011;7263;49.418;11.064;2024-03-06T02:33:01;17.73;;;12.93;;
14358;SDS011;7263;49.418;11.064;2024-03-06T02:35:29;16.33;;;12.37;;
14358;SDS011;7263;49.418;11.064;2024-03-06T02:37:59;16.90;;;13.00;;
14358;SDS011;7263;49.418;11.064;2024-03-06T02:40:30;17.27;;;13.33;;
14358;SDS011;7263;49.418;11.064;2024-03-06T02:42:56;19.27;;;13.00;;
14358;SDS011;7263;49.418;11.064;2024-03-06T02:45:23;19.27;;;14.50;;
14358;SDS011;7263;49.418;11.064;2024-03-06T02:47:53;18.50;;;14.07;;
14358;SDS011;7263;49.418;11.064;2024-03-06T02:50:37;16.17;;;13.20;;
14358;SDS011;7263;49.418;11.064;2024-03-06T02:53:11;21.70;;;14.37;;
14358;SDS011;7263;49.418;11.064;2024-03-06T02:55:42;21.93;;;13.90;;
14358;SDS011;7263;49.418;11.064;2024-03-06T02:58:12;22.17;;;15.67;;
14358;SDS011;7263;49.418;11.064;2024-03-06T03:00:41;18.40;;;14.50;;
14358;SDS011;7263;49.418;11.064;2024-03-06T03:03:10;21.37;;;13.97;;
14358;SDS011;7263;49.418;11.064;2024-03-06T03:05:52;19.33;;;13.27;;
14358;SDS011;7263;49.418;11.064;2024-03-06T03:08:20;19.93;;;14.00;;
14358;SDS011;7263;49.418;11.064;2024-03-06T03:10:46;20.20;;;15.03;;
14358;SDS011;7263;49.418;11.064;2024-03-06T03:13:13;18.07;;;13.80;;
14358;SDS011;7263;49.418;11.064;2024-03-06T03:15:57;20.40;;;14.87;;
14358;SDS011;7263;49.418;11.064;2024-03-06T03:18:27;20.10;;;15.53;;
14358;SDS011;7263;49.418;11.064;2024-03-06T03:20:54;21.43;;;14.93;;
14358;SDS011;7263;49.418;11.064;2024-03-06T03:23:22;20.60;;;14.97;;
14358;SDS011;7263;49.418;11.064;2024-03-06T03:25:52;19.70;;;14.27;;
14358;SDS011;7263;49.418;11.064;2024-03-06T03:28:21;24.13;;;16.23;;
14358;SDS011;7263;49.418;11.064;2024-03-06T03:30:48;22.00;;;15.80;;
14358;SDS011;7263;49.418;11.064;2024-03-06T03:33:15;20.57;;;15.57;;
14358;SDS011;7263;49.418;11.064;2024-03-06T03:35:44;22.57;;;16.30;;
14358;SDS011;7263;49.418;11.064;2024-03-06T03:38:10;20.90;;;15.53;;
14358;SDS011;7263;49.418;11.064;2024-03-06T03:40:41;28.07;;;20.13;;
14358;SDS011;7263;49.418;11.064;2024-03-06T03:43:10;54.97;;;40.07;;
14358;SDS011;7263;49.418;11.064;2024-03-06T03:45:39;21.87;;;17.07;;
14358;SDS011;7263;49.418;11.064;2024-03-06T03:48:06;21.47;;;16.10;;
14358;SDS011;7263;49.418;11.064;2024-03-06T03:50:33;31.30;;;22.73;;
14358;SDS011;7263;49.418;11.064;2024-03-06T03:53:00;21.43;;;14.97;;
14358;SDS011;7263;49.418;11.064;2024-03-06T03:55:27;20.13;;;14.93;;
14358;SDS011;7263;49.418;11.064;2024-03-06T03:57:55;29.60;;;18.23;;
14358;SDS011;7263;49.418;11.064;2024-03-06T04:00:24;22.47;;;15.97;;
14358;SDS011;7263;49.418;11.064;2024-03-06T04:02:59;22.37;;;15.50;;
14358;SDS011;7263;49.418;11.064;2024-03-06T04:05:30;21.43;;;15.33;;
14358;SDS011;7263;49.418;11.064;2024-03-06T04:07:57;20.87;;;14.67;;
14358;SDS011;7263;49.418;11.064;2024-03-06T04:10:24;24.07;;;17.43;;
14358;SDS011;7263;49.418;11.064;2024-03-06T04:12:51;21.77;;;15.57;;
14358;SDS011;7263;49.418;11.064;2024-03-06T04:15:24;30.20;;;22.10;;
14358;SDS011;7263;49.418;11.064;2024-03-06T04:17:54;24.87;;;15.30;;
14358;SDS011;7263;49.418;11.064;2024-03-06T04:20:21;23.77;;;16.30;;
14358;SDS011;7263;49.418;11.064;2024-03-06T04:22:50;23.10;;;16.40;;
14358;SDS011;7263;49.418;11.064;2024-03-06T04:25:17;25.27;;;17.50;;
14358;SDS011;7263;49.418;11.064;2024-03-06T04:27:50;25.80;;;17.40;;
14358;SDS011;7263;49.418;11.064;2024-03-06T04:30:42;26.33;;;18.07;;
14358;SDS011;7263;49.418;11.064;2024-03-06T04:33:11;24.70;;;16.17;;
14358;SDS011;7263;49.418;11.064;2024-03-06T04:35:43;28.90;;;17.50;;
14358;SDS011;7263;49.418;11.064;2024-03-06T04:38:12;26.73;;;18.40;;
14358;SDS011;7263;49.418;11.064;2024-03-06T04:40:39;24.47;;;17.03;;
14358;SDS011;7263;49.418;11.064;2024-03-06T04:43:10;22.63;;;15.97;;
14358;SDS011;7263;49.418;11.064;2024-03-06T04:45:39;25.77;;;16.80;;
14358;SDS011;7263;49.418;11.064;2024-03-06T04:48:10;26.97;;;17.77;;
14358;SDS011;7263;49.418;11.064;2024-03-06T04:50:40;25.27;;;17.90;;
14358;SDS011;7263;49.418;11.064;2024-03-06T04:53:13;26.97;;;17.90;;
14358;SDS011;7263;49.418;11.064;2024-03-06T04:55:45;27.80;;;19.20;;
14358;SDS011;7263;49.418;11.064;2024-03-06T04:58:11;30.43;;;18.13;;
14358;SDS011;7263;49.418;11.064;2024-03-06T05:00:49;30.37;;;20.90;;
14358;SDS011;7263;49.418;11.064;2024-03-06T05:03:20;28.47;;;18.57;;
14358;SDS011;7263;49.418;11.064;2024-03-06T05:05:49;28.40;;;18.03;;
14358;SDS011;7263;49.418;11.064;2024-03-06T05:08:19;29.23;;;20.10;;
14358;SDS011;7263;49.418;11.064;2024-03-06T05:10:51;31.50;;;20.47;;
14358;SDS011;7263;49.418;11.064;2024-03-06T05:13:24;29.93;;;19.93;;
14358;SDS011;7263;49.418;11.064;2024-03-06T05:15:54;29.47;;;19.40;;
14358;SDS011;7263;49.418;11.064;2024-03-06T05:18:27;33.53;;;22.07;;
14358;SDS011;7263;49.418;11.064;2024-03-06T05:20:57;33.97;;;26.23;;
14358;SDS011;7263;49.418;11.064;2024-03-06T05:23:29;36.13;;;29.23;;
14358;SDS011;7263;49.418;11.064;2024-03-06T05:25:58;38.30;;;28.07;;
14358;SDS011;7263;49.418;11.064;2024-03-06T05:28:35;33.43;;;25.23;;
14358;SDS011;7263;49.418;11.064;2024-03-06T05:31:25;32.80;;;21.93;;
14358;SDS011;7263;49.418;11.064;2024-03-06T05:33:51;29.83;;;20.13;;
14358;SDS011;7263;49.418;11.064;2024-03-06T05:36:22;42.47;;;25.37;;
14358;SDS011;7263;49.418;11.064;2024-03-06T05:38:54;36.10;;;23.23;;
14358;SDS011;7263;49.418;11.064;2024-03-06T05:41:20;33.37;;;21.70;;
14358;SDS011;7263;49.418;11.064;2024-03-06T05:43:47;31.60;;;20.17;;
14358;SDS011;7263;49.418;11.064;2024-03-06T05:46:14;33.37;;;21.83;;
14358;SDS011;7263;49.418;11.064;2024-03-06T05:48:44;29.63;;;19.03;;
14358;SDS011;7263;49.418;11.064;2024-03-06T05:51:10;31.50;;;20.77;;
14358;SDS011;7263;49.418;11.064;2024-03-06T05:53:40;29.93;;;19.23;;
14358;SDS011;7263;49.418;11.064;2024-03-06T05:56:07;27.03;;;18.37;;
14358;SDS011;7263;49.418;11.064;2024-03-06T05:58:34;29.07;;;19.53;;
14358;SDS011;7263;49.418;11.064;2024-03-06T06:01:05;29.40;;;20.03;;
14358;SDS011;7263;49.418;11.064;2024-03-06T06:03:33;29.13;;;19.70;;
14358;SDS011;7263;49.418;11.064;2024-03-06T06:06:05;29.23;;;19.67;;
14358;SDS011;7263;49.418;11.064;2024-03-06T06:08:31;28.97;;;18.10;;
14358;SDS011;7263;49.418;11.064;2024-03-06T06:10:58;27.30;;;18.23;;
14358;SDS011;7263;49.418;11.064;2024-03-06T06:13:25;28.37;;;17.43;;
14358;SDS011;7263;49.418;11.064;2024-03-06T06:15:54;29.83;;;18.87;;
14358;SDS011;7263;49.418;11.064;2024-03-06T06:18:21;28.60;;;18.13;;
14358;SDS011;7263;49.418;11.064;2024-03-06T06:20:47;28.07;;;18.07;;
14358;SDS011;7263;49.418;11.064;2024-03-06T06:23:16;24.87;;;16.73;;
14358;SDS011;7263;49.418;11.064;2024-03-06T06:25:42;28.40;;;17.83;;
14358;SDS011;7263;49.418;11.064;2024-03-06T06:28:09;25.80;;;16.60;;
14358;SDS011;7263;49.418;11.064;2024-03-06T06:30:39;25.83;;;16.50;;
14358;SDS011;7263;49.418;11.064;2024-03-06T06:33:06;26.43;;;17.23;;
14358;SDS011;7263;49.418;11.064;2024-03-06T06:35:33;25.80;;;17.23;;
14358;SDS011;7263;49.418;11.064;2024-03-06T06:38:00;28.60;;;17.27;;
14358;SDS011;7263;49.418;11.064;2024-03-06T06:40:29;24.77;;;16.33;;
14358;SDS011;7263;49.418;11.064;2024-03-06T06:42:58;26.63;;;17.50;;
14358;SDS011;7263;49.418;11.064;2024-03-06T06:45:27;27.10;;;17.37;;
14358;SDS011;7263;49.418;11.064;2024-03-06T06:47:54;28.13;;;17.40;;
14358;SDS011;7263;49.418;11.064;2024-03-06T06:50:20;27.27;;;17.67;;
14358;SDS011;7263;49.418;11.064;2024-03-06T06:52:54;25.33;;;17.00;;
14358;SDS011;7263;49.418;11.064;2024-03-06T06:55:20;28.17;;;17.70;;
14358;SDS011;7263;49.418;11.064;2024-03-06T06:57:54;23.97;;;16.37;;
14358;SDS011;7263;49.418;11.064;2024-03-06T07:00:31;26.40;;;16.83;;
14358;SDS011;7263;49.418;11.064;2024-03-06T07:02:59;25.57;;;16.23;;
14358;SDS011;7263;49.418;11.064;2024-03-06T07:05:35;27.63;;;16.20;;
14358;SDS011;7263;49.418;11.064;2024-03-06T07:08:02;24.87;;;15.83;;
14358;SDS011;7263;49.418;11.064;2024-03-06T07:10:28;25.30;;;16.07;;
14358;SDS011;7263;49.418;11.064;2024-03-06T07:12:57;23.57;;;15.70;;
14358;SDS011;7263;49.418;11.064;2024-03-06T07:15:23;23.90;;;16.40;;
14358;SDS011;7263;49.418;11.064;2024-03-06T07:17:53;24.70;;;15.67;;
14358;SDS011;7263;49.418;11.064;2024-03-06T07:20:26;27.27;;;16.37;;
14358;SDS011;7263;49.418;11.064;2024-03-06T07:22:54;25.33;;;16.63;;
14358;SDS011;7263;49.418;11.064;2024-03-06T07:25:23;23.57;;;16.23;;
14358;SDS011;7263;49.418;11.064;2024-03-06T07:27:53;23.33;;;15.17;;
14358;SDS011;7263;49.418;11.064;2024-03-06T07:30:21;26.53;;;17.33;;
14358;SDS011;7263;49.418;11.064;2024-03-06T07:32:48;25.63;;;15.77;;
14358;SDS011;7263;49.418;11.064;2024-03-06T07:35:19;22.67;;;16.30;;
14358;SDS011;7263;49.418;11.064;2024-03-06T07:38:00;27.27;;;16.00;;
14358;SDS011;7263;49.418;11.064;2024-03-06T07:40:32;27.67;;;16.87;;
14358;SDS011;7263;49.418;11.064;2024-03-06T07:43:02;23.70;;;16.07;;
14358;SDS011;7263;49.418;11.064;2024-03-06T07:45:38;21.63;;;14.93;;
14358;SDS011;7263;49.418;11.064;2024-03-06T07:48:06;24.83;;;15.77;;
14358;SDS011;7263;49.418;11.064;2024-03-06T07:50:38;24.03;;;15.53;;
14358;SDS011;7263;49.418;11.064;2024-03-06T07:53:07;20.03;;;14.20;;
14358;SDS011;7263;49.418;11.064;2024-03-06T07:55:44;21.30;;;14.60;;
14358;SDS011;7263;49.418;11.064;2024-03-06T07:58:11;20.90;;;15.13;;
14358;SDS011;7263;49.418;11.064;2024-03-06T08:00:47;21.77;;;15.13;;
14358;SDS011;7263;49.418;11.064;2024-03-06T08:03:18;19.60;;;12.87;;
14358;SDS011;7263;49.418;11.064;2024-03-06T08:05:51;20.33;;;13.50;;
14358;SDS011;7263;49.418;11.064;2024-03-06T08:08:20;18.97;;;12.77;;
14358;SDS011;7263;49.418;11.064;2024-03-06T08:10:47;22.10;;;12.57;;
14358;SDS011;7263;49.418;11.064;2024-03-06T08:13:15;15.37;;;10.93;;
14358;SDS011;7263;49.418;11.064;2024-03-06T08:15:44;17.70;;;11.67;;
14358;SDS011;7263;49.418;11.064;2024-03-06T08:18:14;19.17;;;11.30;;
14358;SDS011;7263;49.418;11.064;2024-03-06T08:20:44;20.50;;;11.50;;
14358;SDS011;7263;49.418;11.064;2024-03-06T08:23:11;17.00;;;11.53;;
14358;SDS011;7263;49.418;11.064;2024-03-06T08:25:38;15.47;;;11.00;;
14358;SDS011;7263;49.418;11.064;2024-03-06T08:28:07;14.20;;;9.87;;
14358;SDS011;7263;49.418;11.064;2024-03-06T08:30:36;16.80;;;10.77;;
14358;SDS011;7263;49.418;11.064;2024-03-06T08:33:03;13.27;;;10.00;;
14358;SDS011;7263;49.418;11.064;2024-03-06T08:35:32;15.00;;;10.07;;
14358;SDS011;7263;49.418;11.064;2024-03-06T08:38:07;16.63;;;11.17;;
14358;SDS011;7263;49.418;11.064;2024-03-06T08:40:40;14.07;;;10.37;;
14358;SDS011;7263;49.418;11.064;2024-03-06T08:43:12;16.10;;;10.70;;
14358;SDS011;7263;49.418;11.064;2024-03-06T08:45:44;15.70;;;9.97;;
14358;SDS011;7263;49.418;11.064;2024-03-06T08:48:13;15.73;;;10.53;;
14358;SDS011;7263;49.418;11.064;2024-03-06T08:50:44;16.70;;;11.10;;
14358;SDS011;7263;49.418;11.064;2024-03-06T08:53:16;17.50;;;10.47;;
14358;SDS011;7263;49.418;11.064;2024-03-06T08:55:43;14.83;;;10.13;;
14358;SDS011;7263;49.418;11.064;2024-03-06T08:58:17;17.30;;;10.40;;
14358;SDS011;7263;49.418;11.064;2024-03-06T09:00:49;16.30;;;11.10;;
14358;SDS011;7263;49.418;11.064;2024-03-06T09:03:28;16.83;;;11.33;;
14358;SDS011;7263;49.418;11.064;2024-03-06T09:05:56;15.57;;;10.57;;
14358;SDS011;7263;49.418;11.064;2024-03-06T09:08:25;15.60;;;11.00;;
14358;SDS011;7263;49.418;11.064;2024-03-06T09:10:58;14.60;;;10.80;;
14358;SDS011;7263;49.418;11.064;2024-03-06T09:13:25;14.00;;;10.13;;
14358;SDS011;7263;49.418;11.064;2024-03-06T09:15:54;17.00;;;10.30;;
14358;SDS011;7263;49.418;11.064;2024-03-06T09:18:24;18.60;;;11.33;;
14358;SDS011;7263;49.418;11.064;2024-03-06T09:20:51;14.70;;;10.27;;
14358;SDS011;7263;49.418;11.064;2024-03-06T09:23:28;16.00;;;11.47;;
14358;SDS011;7263;49.418;11.064;2024-03-06T09:25:55;14.97;;;10.37;;
14358;SDS011;7263;49.418;11.064;2024-03-06T09:28:21;16.97;;;10.90;;
14358;SDS011;7263;49.418;11.064;2024-03-06T09:30:53;16.90;;;11.23;;
14358;SDS011;7263;49.418;11.064;2024-03-06T09:33:25;16.87;;;12.17;;
14358;SDS011;7263;49.418;11.064;2024-03-06T09:35:55;17.13;;;11.27;;
14358;SDS011;7263;49.418;11.064;2024-03-06T09:38:26;16.97;;;10.40;;
14358;SDS011;7263;49.418;11.064;2024-03-06T09:40:58;14.70;;;11.53;;
14358;SDS011;7263;49.418;11.064;2024-03-06T09:43:27;14.90;;;10.83;;
14358;SDS011;7263;49.418;11.064;2024-03-06T09:46:02;17.80;;;11.40;;
14358;SDS011;7263;49.418;11.064;2024-03-06T09:48:32;15.30;;;10.50;;
14358;SDS011;7263;49.418;11.064;2024-03-06T09:51:00;17.03;;;10.83;;
14358;SDS011;7263;49.418;11.064;2024-03-06T09:53:32;16.17;;;10.50;;
14358;SDS011;7263;49.418;11.064;2024-03-06T09:56:02;19.40;;;10.87;;
14358;SDS011;7263;49.418;11.064;2024-03-06T09:58:38;14.33;;;10.07;;
14358;SDS011;7263;49.418;11.064;2024-03-06T10:01:05;15.97;;;11.03;;
14358;SDS011;7263;49.418;11.064;2024-03-06T10:03:37;17.87;;;11.03;;
14358;SDS011;7263;49.418;11.064;2024-03-06T10:06:05;16.20;;;10.87;;
14358;SDS011;7263;49.418;11.064;2024-03-06T10:08:43;15.30;;;10.20;;
14358;SDS011;7263;49.418;11.064;2024-03-06T10:11:11;16.13;;;10.30;;
14358;SDS011;7263;49.418;11.064;2024-03-06T10:13:38;14.90;;;10.10;;
14358;SDS011;7263;49.418;11.064;2024-03-06T10:16:05;14.73;;;9.57;;
14358;SDS011;7263;49.418;11.064;2024-03-06T10:18:35;17.70;;;10.93;;
14358;SDS011;7263;49.418;11.064;2024-03-06T10:21:05;13.93;;;9.63;;
14358;SDS011;7263;49.418;11.064;2024-03-06T10:23:37;15.47;;;10.47;;
14358;SDS011;7263;49.418;11.064;2024-03-06T10:26:15;14.93;;;9.07;;
14358;SDS011;7263;49.418;11.064;2024-03-06T10:28:56;14.03;;;9.50;;
14358;SDS011;7263;49.418;11.064;2024-03-06T10:31:29;14.83;;;9.87;;
14358;SDS011;7263;49.418;11.064;2024-03-06T10:34:11;14.33;;;9.43;;
14358;SDS011;7263;49.418;11.064;2024-03-06T10:36:38;42.30;;;32.23;;
14358;SDS011;7263;49.418;11.064;2024-03-06T10:39:05;25.30;;;18.60;;
14358;SDS011;7263;49.418;11.064;2024-03-06T10:41:35;16.13;;;10.47;;
14358;SDS011;7263;49.418;11.064;2024-03-06T10:44:06;15.53;;;10.07;;
14358;SDS011;7263;49.418;11.064;2024-03-06T10:46:44;17.17;;;10.00;;
14358;SDS011;7263;49.418;11.064;2024-03-06T10:49:15;15.73;;;10.40;;
14358;SDS011;7263;49.418;11.064;2024-03-06T10:51:48;14.40;;;9.70;;
14358;SDS011;7263;49.418;11.064;2024-03-06T10:54:17;15.23;;;9.53;;
14358;SDS011;7263;49.418;11.064;2024-03-06T10:56:49;14.10;;;9.90;;
14358;SDS011;7263;49.418;11.064;2024-03-06T10:59:16;14.83;;;10.00;;
14358;SDS011;7263;49.418;11.064;2024-03-06T11:01:46;13.87;;;9.53;;
14358;SDS011;7263;49.418;11.064;2024-03-06T11:04:16;13.33;;;8.97;;
14358;SDS011;7263;49.418;11.064;2024-03-06T11:06:45;16.80;;;11.30;;
14358;SDS011;7263;49.418;11.064;2024-03-06T11:09:14;14.43;;;9.87;;
14358;SDS011;7263;49.418;11.064;2024-03-06T11:11:50;15.70;;;9.50;;
14358;SDS011;7263;49.418;11.064;2024-03-06T11:14:30;12.87;;;9.40;;
14358;SDS011;7263;49.418;11.064;2024-03-06T11:17:01;13.37;;;9.50;;
14358;SDS011;7263;49.418;11.064;2024-03-06T11:26:01;14.97;;;8.20;;
14358;SDS011;7263;49.418;11.064;2024-03-06T11:28:30;15.33;;;9.97;;
14358;SDS011;7263;49.418;11.064;2024-03-06T11:30:59;11.17;;;8.67;;
14358;SDS011;7263;49.418;11.064;2024-03-06T11:33:39;14.10;;;8.77;;
14358;SDS011;7263;49.418;11.064;2024-03-06T11:36:20;13.77;;;8.90;;
14358;SDS011;7263;49.418;11.064;2024-03-06T11:38:53;11.60;;;9.00;;
14358;SDS011;7263;49.418;11.064;2024-03-06T11:41:22;15.57;;;9.83;;
14358;SDS011;7263;49.418;11.064;2024-03-06T11:44:00;13.27;;;9.17;;
14358;SDS011;7263;49.418;11.064;2024-03-06T11:46:40;14.27;;;9.37;;
14358;SDS011;7263;49.418;11.064;2024-03-06T11:49:16;12.27;;;9.10;;
14358;SDS011;7263;49.418;11.064;2024-03-06T11:51:45;12.20;;;8.83;;
14358;SDS011;7263;49.418;11.064;2024-03-06T11:54:25;13.43;;;9.33;;
14358;SDS011;7263;49.418;11.064;2024-03-06T11:56:53;13.87;;;10.00;;
14358;SDS011;7263;49.418;11.064;2024-03-06T11:59:25;13.03;;;9.17;;
14358;SDS011;7263;49.418;11.064;2024-03-06T12:01:58;19.07;;;9.40;;
14358;SDS011;7263;49.418;11.064;2024-03-06T12:04:33;11.93;;;8.57;;
14358;SDS011;7263;49.418;11.064;2024-03-06T12:07:02;12.37;;;8.53;;
14358;SDS011;7263;49.418;11.064;2024-03-06T12:09:30;13.63;;;9.23;;
14358;SDS011;7263;49.418;11.064;2024-03-06T12:12:06;12.63;;;9.03;;
14358;SDS011;7263;49.418;11.064;2024-03-06T12:14:42;12.40;;;8.63;;
14358;SDS011;7263;49.418;11.064;2024-03-06T12:17:12;12.33;;;8.03;;
14358;SDS011;7263;49.418;11.064;2024-03-06T12:19:39;13.70;;;9.20;;
14358;SDS011;7263;49.418;11.064;2024-03-06T12:22:10;11.73;;;8.27;;
14358;SDS011;7263;49.418;11.064;2024-03-06T12:24:40;12.47;;;8.73;;
14358;SDS011;7263;49.418;11.064;2024-03-06T12:27:10;12.67;;;8.63;;
14358;SDS011;7263;49.418;11.064;2024-03-06T12:29:41;11.97;;;8.53;;
14358;SDS011;7263;49.418;11.064;2024-03-06T12:32:15;11.20;;;8.30;;
14358;SDS011;7263;49.418;11.064;2024-03-06T12:34:43;19.77;;;15.30;;
14358;SDS011;7263;49.418;11.064;2024-03-06T12:37:17;13.27;;;9.70;;
14358;SDS011;7263;49.418;11.064;2024-03-06T12:39:52;10.40;;;8.10;;
14358;SDS011;7263;49.418;11.064;2024-03-06T12:42:22;10.13;;;7.30;;
14358;SDS011;7263;49.418;11.064;2024-03-06T12:44:54;10.53;;;7.27;;
14358;SDS011;7263;49.418;11.064;2024-03-06T12:47:21;10.37;;;7.53;;
14358;SDS011;7263;49.418;11.064;2024-03-06T12:49:56;9.73;;;7.43;;
14358;SDS011;7263;49.418;11.064;2024-03-06T12:52:33;10.40;;;7.27;;
14358;SDS011;7263;49.418;11.064;2024-03-06T12:55:00;10.93;;;7.30;;
14358;SDS011;7263;49.418;11.064;2024-03-06T12:57:29;9.10;;;6.60;;
14358;SDS011;7263;49.418;11.064;2024-03-06T13:00:00;12.27;;;8.53;;
14358;SDS011;7263;49.418;11.064;2024-03-06T13:02:32;10.70;;;7.67;;
14358;SDS011;7263;49.418;11.064;2024-03-06T13:04:58;10.43;;;7.30;;
14358;SDS011;7263;49.418;11.064;2024-03-06T13:07:28;11.23;;;7.57;;
14358;SDS011;7263;49.418;11.064;2024-03-06T13:09:55;12.33;;;8.00;;
14358;SDS011;7263;49.418;11.064;2024-03-06T13:12:31;10.47;;;6.87;;
14358;SDS011;7263;49.418;11.064;2024-03-06T13:15:07;11.13;;;8.17;;
14358;SDS011;7263;49.418;11.064;2024-03-06T13:17:39;13.07;;;7.77;;
14358;SDS011;7263;49.418;11.064;2024-03-06T13:20:09;10.93;;;8.23;;
14358;SDS011;7263;49.418;11.064;2024-03-06T13:22:38;11.03;;;8.03;;
14358;SDS011;7263;49.418;11.064;2024-03-06T13:25:12;11.77;;;8.07;;
14358;SDS011;7263;49.418;11.064;2024-03-06T13:27:41;13.70;;;8.23;;
14358;SDS011;7263;49.418;11.064;2024-03-06T13:30:13;12.33;;;7.90;;
14358;SDS011;7263;49.418;11.064;2024-03-06T13:32:40;13.90;;;7.67;;
14358;SDS011;7263;49.418;11.064;2024-03-06T13:35:13;11.43;;;7.27;;
14358;SDS011;7263;49.418;11.064;2024-03-06T13:37:50;47.20;;;34.13;;
14358;SDS011;7263;49.418;11.064;2024-03-06T13:40:25;21.57;;;16.87;;
14358;SDS011;7263;49.418;11.064;2024-03-06T13:42:52;11.47;;;7.87;;
14358;SDS011;7263;49.418;11.064;2024-03-06T13:45:20;9.87;;;7.13;;
14358;SDS011;7263;49.418;11.064;2024-03-06T13:47:47;10.97;;;7.70;;
14358;SDS011;7263;49.418;11.064;2024-03-06T13:50:15;11.50;;;7.90;;
14358;SDS011;7263;49.418;11.064;2024-03-06T13:52:42;12.33;;;8.07;;
14358;SDS011;7263;49.418;11.064;2024-03-06T13:55:09;10.93;;;8.23;;
14358;SDS011;7263;49.418;11.064;2024-03-06T13:57:44;11.60;;;7.77;;
14358;SDS011;7263;49.418;11.064;2024-03-06T14:00:15;11.10;;;7.40;;
14358;SDS011;7263;49.418;11.064;2024-03-06T14:02:48;12.07;;;7.47;;
14358;SDS011;7263;49.418;11.064;2024-03-06T14:05:18;15.13;;;8.33;;
14358;SDS011;7263;49.418;11.064;2024-03-06T14:07:49;12.07;;;8.20;;
14358;SDS011;7263;49.418;11.064;2024-03-06T14:10:20;12.70;;;8.93;;
14358;SDS011;7263;49.418;11.064;2024-03-06T14:12:49;11.67;;;8.20;;
14358;SDS011;7263;49.418;11.064;2024-03-06T14:15:17;14.60;;;9.63;;
14358;SDS011;7263;49.418;11.064;2024-03-06T14:17:51;12.87;;;8.90;;
14358;SDS011;7263;49.418;11.064;2024-03-06T14:20:19;12.07;;;9.30;;
14358;SDS011;7263;49.418;11.064;2024-03-06T14:22:55;12.53;;;8.90;;
14358;SDS011;7263;49.418;11.064;2024-03-06T14:25:21;12.73;;;8.87;;
14358;SDS011;7263;49.418;11.064;2024-03-06T14:28:00;11.33;;;8.30;;
14358;SDS011;7263;49.418;11.064;2024-03-06T14:30:29;11.57;;;7.63;;
14358;SDS011;7263;49.418;11.064;2024-03-06T14:33:03;12.10;;;8.30;;
14358;SDS011;7263;49.418;11.064;2024-03-06T14:35:36;13.10;;;8.80;;
14358;SDS011;7263;49.418;11.064;2024-03-06T14:38:03;14.27;;;8.37;;
14358;SDS011;7263;49.418;11.064;2024-03-06T14:40:30;13.13;;;9.03;;
14358;SDS011;7263;49.418;11.064;2024-03-06T14:43:06;12.50;;;8.67;;
14358;SDS011;7263;49.418;11.064;2024-03-06T14:45:34;14.83;;;9.17;;
14358;SDS011;7263;49.418;11.064;2024-03-06T14:48:08;11.57;;;8.83;;
14358;SDS011;7263;49.418;11.064;2024-03-06T14:50:45;12.43;;;8.93;;
14358;SDS011;7263;49.418;11.064;2024-03-06T14:53:12;10.80;;;8.10;;